Airfield :
LOGIN :

Register | Disclaimer

   EN    FR    IT 

 










Legend :    VFR   Marginal VFR   IFR   Intensive IFR   Very Intensive IFR
Visi :
Ceiling :
>= 8 km
>= 3000ft
5 to 8 km
1000 to 3000 ft
1500m to 5 km
500 to 1000 ft
800 to 1500m
200 to 500 ft
< 800m
< 200 ft
Symbols :   Thunderstorms  Fog  Heavy snow  Heavy precipitations  Wind > 20 kt
SIGMETs :     Misc.  Thunderstorms  Icing  Turbulence  Mountain Waves  Volcanic Ashes







- Airport Elevation : 424 ft
- IATA code : QGY


LHPR - Györ Per

CURRENT METAR :
  • 181815Z AUTO 28003KT 9999 FEW045 BKN052 03/M01 Q1019 RMK BLU

EXPIRED METARs :
  • 181745Z AUTO 29004KT 270V330 CAVOK 03/M00 Q1020 RMK BLU
  • 181715Z AUTO 33006KT CAVOK 03/M00 Q1020 RMK BLU
  • 181645Z 32004KT 9999 BKN046 BKN083 03/M01 Q1020 RMK BLU
  • 181615Z 31003KT CAVOK 03/M01 Q1021 RMK BLU
  • 181545Z 31003KT CAVOK 03/M01 Q1021 RMK BLU

TAF TAF LHPR
Valid from the 18 at 18:00 until the 19 at 03:00 UTC


181715Z 1818/1903 VRB03KT 9999 BKN045 OVC080
TEMPO 1820/1903 5000 -SN BKN030 OVC060
No reported NOTAMs for that airfield.
1 SIGMET reported for the Budapest FIR (LHCC) :
 
Severe icing
LHCC SIGMET 02 VALID 181830/182230 LHBP
LHCC BUDAPEST FIR SEV ICE FCST S OF LINE N4635 E01638 - N4708 E01813 - N4611 E02112 3000/6000FT STNR NC=



MET'MAP, your aeronautical weather chart ! - Copyright ORBIFLY December 2007 - Disclaimer

ORBIFLY MET'MAP TEAM :

Programming & Development : Alexandra Zaïnal
Concept & Development : Baudouin d'Aumeries
Co-Development & Prog : Marc-Olivier Méhu
Technical & hardware support : Manuel Goepfert

Contact : metmap@orbifly.com




SOURCES & CREDITS :

   NOAA